Terminal Aerodrome Forecast
Issued by NWS Buffalo, NY

Home | Current Version | Previous Version | Text Only | Print | Product List | Glossary On
Versions: 1 2 3 4 5 6 7 8 9 10 11 12 13 14 15 16 17 18 19 20 21 22 23
312
FTUS41 KBUF 240535
TAFART
TAF
KART 240535Z 2406/2506 19004KT P6SM SKC
     FM241000 VRB03KT P6SM SKC
     FM241500 26004KT P6SM FEW200
     FM241700 25009KT P6SM SKC
     FM242300 21008KT P6SM SKC=

USA.gov is the U.S. government's official web portal to all federal, state and local government web resources and services.